createdAt,value
2022-08-12T00:02:24.808Z,3.00
2022-08-12T00:05:18.910Z,3.00
2022-08-12T00:08:16.512Z,3.80
2022-08-12T00:11:12.437Z,4.00
2022-08-12T00:14:09.109Z,4.00
2022-08-12T00:17:19.232Z,4.40
2022-08-12T00:20:29.717Z,4.20
2022-08-12T00:23:21.080Z,4.00
2022-08-12T00:26:24.388Z,4.10
2022-08-12T00:29:34.429Z,3.90
2022-08-12T00:33:03.265Z,3.90
2022-08-12T00:36:08.044Z,3.40
2022-08-12T00:39:18.699Z,3.60
2022-08-12T00:42:11.745Z,3.90
2022-08-12T00:44:53.895Z,3.50
2022-08-12T00:47:33.735Z,3.90
2022-08-12T00:50:28.111Z,3.70
2022-08-12T00:53:31.292Z,4.00
2022-08-12T00:56:10.207Z,4.00
2022-08-12T00:59:03.797Z,3.90
2022-08-12T01:02:00.999Z,4.00
2022-08-12T01:04:57.538Z,4.20
2022-08-12T01:07:51.727Z,4.30
2022-08-12T01:11:19.330Z,4.50
2022-08-12T01:14:29.144Z,4.30
2022-08-12T01:17:22.211Z,4.10
2022-08-12T01:20:04.913Z,4.20
2022-08-12T01:23:06.498Z,4.50
2022-08-12T01:25:56.197Z,4.30
2022-08-12T01:28:42.994Z,4.60
2022-08-12T01:31:41.637Z,4.30
2022-08-12T01:34:37.602Z,4.70
2022-08-12T01:37:22.806Z,4.80
2022-08-12T01:40:34.440Z,4.80
2022-08-12T01:43:47.580Z,4.80
2022-08-12T01:47:05.680Z,5.00
2022-08-12T01:50:16.721Z,4.70
2022-08-12T01:53:10.008Z,4.30
2022-08-12T01:56:03.131Z,4.80
2022-08-12T01:59:12.563Z,4.90
2022-08-12T02:02:27.562Z,4.90
2022-08-12T02:05:33.869Z,5.30
2022-08-12T02:08:56.251Z,4.30
2022-08-12T02:11:47.592Z,4.10
2022-08-12T02:14:51.467Z,4.50
2022-08-12T02:17:57.004Z,4.20
2022-08-12T02:20:51.958Z,4.80
2022-08-12T02:23:34.249Z,4.20
2022-08-12T02:26:39.442Z,4.40
2022-08-12T02:29:33.275Z,3.70
2022-08-12T02:32:22.940Z,4.10
2022-08-12T02:35:14.837Z,3.70
2022-08-12T02:38:09.182Z,3.80
2022-08-12T02:41:06.403Z,4.00
2022-08-12T02:43:59.890Z,3.90
2022-08-12T02:47:18.273Z,3.80
2022-08-12T02:50:20.980Z,4.00
2022-08-12T02:53:10.703Z,4.20
2022-08-12T02:55:49.553Z,4.60
2022-08-12T02:58:33.087Z,3.80
2022-08-12T03:01:48.431Z,3.60
2022-08-12T03:04:43.437Z,4.00
2022-08-12T03:07:49.262Z,3.60
2022-08-12T03:11:23.077Z,3.70
2022-08-12T03:14:04.233Z,3.60
2022-08-12T03:17:29.231Z,3.50
2022-08-12T03:20:09.999Z,3.60
2022-08-12T03:23:23.059Z,3.80
2022-08-12T03:26:22.235Z,3.80
2022-08-12T03:29:52.115Z,3.60
2022-08-12T03:33:40.953Z,3.70
2022-08-12T03:36:35.535Z,4.70
2022-08-12T03:39:46.863Z,4.30
2022-08-12T03:43:14.643Z,4.10
2022-08-12T03:47:12.885Z,4.20
2022-08-12T03:50:08.734Z,4.50
2022-08-12T03:53:56.202Z,4.50
2022-08-12T03:57:12.593Z,6.60
2022-08-12T04:00:42.107Z,6.40
2022-08-12T04:03:43.171Z,4.90
2022-08-12T04:06:44.848Z,5.60
2022-08-12T04:09:22.122Z,5.80
2022-08-12T04:12:09.697Z,4.70
2022-08-12T04:15:14.020Z,5.10
2022-08-12T04:18:23.913Z,4.60
2022-08-12T04:22:01.625Z,4.30
2022-08-12T04:24:40.895Z,4.80
2022-08-12T04:27:19.173Z,4.40
2022-08-12T04:30:29.374Z,5.00
2022-08-12T04:32:59.138Z,4.80
2022-08-12T04:36:08.690Z,5.00
2022-08-12T04:39:19.008Z,5.00
2022-08-12T04:42:14.331Z,5.20
2022-08-12T04:45:13.582Z,5.40
2022-08-12T04:48:07.837Z,5.40
2022-08-12T04:51:17.708Z,5.70
2022-08-12T04:53:52.726Z,5.70
2022-08-12T04:56:43.506Z,5.30
2022-08-12T05:00:16.494Z,5.30
2022-08-12T05:03:06.943Z,5.10
2022-08-12T05:06:09.423Z,5.20
2022-08-12T05:08:54.703Z,5.00
2022-08-12T05:11:37.268Z,5.80
2022-08-12T05:14:23.450Z,5.00
2022-08-12T05:17:32.729Z,6.20
2022-08-12T05:20:16.584Z,5.20
2022-08-12T05:23:12.707Z,5.50
2022-08-12T05:26:02.514Z,5.60
2022-08-12T05:30:05.631Z,5.40
2022-08-12T05:32:21.191Z,5.70
2022-08-12T05:35:30.408Z,5.20
2022-08-12T05:38:57.972Z,5.00
2022-08-12T05:41:43.978Z,5.00
2022-08-12T05:44:33.147Z,5.00
2022-08-12T05:47:07.852Z,4.80
2022-08-12T05:49:58.890Z,5.10
2022-08-12T05:52:41.872Z,4.80
2022-08-12T05:55:36.314Z,4.30
2022-08-12T05:58:27.972Z,4.70
2022-08-12T06:02:10.592Z,4.40
2022-08-12T06:04:45.201Z,4.50
2022-08-12T06:08:05.376Z,4.60
2022-08-12T06:10:56.590Z,4.10
2022-08-12T06:13:52.746Z,4.40
2022-08-12T06:16:50.882Z,4.40
2022-08-12T06:20:28.138Z,4.60
2022-08-12T06:23:11.826Z,4.20
2022-08-12T06:25:53.657Z,3.80
2022-08-12T06:28:45.025Z,4.40
2022-08-12T06:31:54.299Z,4.30
2022-08-12T06:35:26.534Z,4.50
2022-08-12T06:37:56.971Z,4.10
2022-08-12T06:41:06.246Z,3.60
2022-08-12T06:44:20.018Z,3.70
2022-08-12T06:47:08.921Z,3.60
2022-08-12T06:49:58.050Z,3.80
2022-08-12T06:52:47.186Z,3.50
2022-08-12T06:55:30.195Z,3.20
2022-08-12T06:58:24.560Z,3.20
2022-08-12T07:01:07.467Z,3.10
2022-08-12T07:04:01.871Z,3.40
2022-08-12T07:07:07.527Z,3.60
2022-08-12T07:10:17.498Z,2.80
2022-08-12T07:13:09.048Z,2.80
2022-08-12T07:15:38.819Z,2.40
2022-08-12T07:18:32.074Z,2.80
2022-08-12T07:22:00.002Z,2.50
2022-08-12T07:24:32.391Z,2.60
2022-08-12T07:27:11.281Z,3.00
2022-08-12T07:30:20.486Z,2.80
2022-08-12T07:33:13.283Z,2.70
2022-08-12T07:35:44.854Z,2.80
2022-08-12T07:38:29.141Z,3.00
2022-08-12T07:41:03.619Z,3.00
2022-08-12T07:43:42.658Z,2.70
2022-08-12T07:46:13.868Z,2.50
2022-08-12T07:48:45.280Z,2.20
2022-08-12T07:51:25.164Z,2.40
2022-08-12T07:54:03.054Z,2.60
2022-08-12T07:56:33.176Z,2.90
2022-08-12T07:59:02.627Z,2.40
2022-08-12T08:01:32.686Z,2.30
2022-08-12T08:04:19.976Z,2.50
2022-08-12T08:06:50.440Z,1.90
2022-08-12T08:09:22.895Z,1.80
2022-08-12T08:12:19.230Z,2.10
2022-08-12T08:14:55.833Z,1.90
2022-08-12T08:17:25.348Z,2.00
2022-08-12T08:22:41.696Z,1.80
2022-08-12T08:25:35.666Z,1.90
2022-08-12T08:28:04.254Z,1.60
2022-08-12T08:30:40.701Z,1.80
2022-08-12T08:33:24.788Z,1.60
2022-08-12T08:36:06.182Z,1.60
2022-08-12T08:38:37.346Z,1.80
2022-08-12T08:42:18.804Z,1.60
2022-08-12T08:44:13.766Z,1.50
2022-08-12T08:46:47.479Z,1.50
2022-08-12T08:49:17.671Z,1.60
2022-08-12T08:51:46.889Z,1.50
2022-08-12T08:56:53.211Z,1.50
2022-08-12T08:59:24.502Z,1.60
2022-08-12T09:02:22.955Z,1.60
2022-08-12T09:05:13.207Z,1.40
2022-08-12T09:08:39.258Z,1.20
2022-08-12T09:12:07.181Z,1.10
2022-08-12T09:14:18.791Z,1.50
2022-08-12T09:17:00.529Z,1.30
2022-08-12T09:19:31.571Z,1.10
2022-08-12T09:22:04.760Z,1.20
2022-08-12T09:24:33.898Z,1.20
2022-08-12T09:27:24.487Z,1.70
2022-08-12T09:30:41.950Z,1.20
2022-08-12T09:33:19.390Z,1.30
2022-08-12T09:36:05.594Z,1.20
2022-08-12T09:38:37.140Z,1.10
2022-08-12T09:42:33.858Z,1.10
2022-08-12T09:47:29.283Z,0.80
2022-08-12T09:49:59.089Z,0.90
2022-08-12T09:53:14.779Z,0.90
2022-08-12T09:56:58.634Z,0.90
2022-08-12T10:00:15.816Z,1.00
2022-08-12T10:02:49.761Z,0.90
2022-08-12T10:05:00.126Z,0.70
2022-08-12T10:07:40.099Z,0.60
2022-08-12T10:10:22.994Z,0.60
2022-08-12T10:13:35.216Z,0.80
2022-08-12T10:16:21.715Z,1.00
2022-08-12T10:18:56.618Z,0.80
2022-08-12T10:21:37.631Z,0.90
2022-08-12T10:24:20.390Z,0.70
2022-08-12T10:27:08.308Z,0.80
2022-08-12T10:30:38.976Z,0.70
2022-08-12T10:32:43.673Z,0.80
2022-08-12T10:35:20.148Z,0.80
2022-08-12T10:38:38.983Z,1.10
2022-08-12T10:41:09.341Z,0.90
2022-08-12T10:43:55.156Z,0.90
2022-08-12T10:46:52.257Z,1.00
2022-08-12T10:50:04.663Z,1.10
2022-08-12T10:52:47.303Z,1.10
2022-08-12T10:55:13.397Z,0.90
2022-08-12T10:58:14.974Z,1.00
2022-08-12T11:00:45.348Z,0.60
2022-08-12T11:04:26.472Z,0.80
2022-08-12T11:07:09.388Z,0.70
2022-08-12T11:09:55.786Z,1.00
2022-08-12T11:12:56.718Z,1.00
2022-08-12T11:15:19.208Z,1.00
2022-08-12T11:17:53.499Z,0.80
2022-08-12T11:20:30.547Z,1.00
2022-08-12T11:23:26.142Z,1.00
2022-08-12T11:26:05.667Z,0.90
2022-08-12T11:28:37.636Z,0.80
2022-08-12T11:31:55.826Z,1.10
2022-08-12T11:34:53.266Z,0.80
2022-08-12T11:37:57.702Z,0.80
2022-08-12T11:40:28.814Z,0.90
2022-08-12T11:43:01.864Z,0.90
2022-08-12T11:45:57.685Z,0.80
2022-08-12T11:48:27.325Z,1.10
2022-08-12T11:51:08.005Z,1.10
2022-08-12T11:53:59.428Z,1.20
2022-08-12T12:03:43.886Z,0.90
2022-08-12T12:06:16.820Z,1.00
2022-08-12T12:08:51.330Z,0.90
2022-08-12T12:11:27.793Z,1.10
2022-08-12T12:17:15.333Z,1.10
2022-08-12T12:19:46.940Z,0.80
2022-08-12T12:22:23.583Z,0.90
2022-08-12T12:25:13.316Z,1.20
2022-08-12T12:28:04.574Z,1.10
2022-08-12T12:30:38.984Z,0.80
2022-08-12T12:33:56.836Z,1.00
2022-08-12T12:36:24.038Z,0.70
2022-08-12T12:39:00.252Z,0.90
2022-08-12T12:42:42.000Z,1.00
2022-08-12T12:44:25.673Z,0.80
2022-08-12T12:47:26.090Z,0.80
2022-08-12T12:49:56.910Z,0.90
2022-08-12T12:52:26.822Z,1.20
2022-08-12T12:54:58.165Z,1.30
2022-08-12T12:57:36.095Z,0.90
2022-08-12T13:00:18.407Z,0.90
2022-08-12T13:02:53.767Z,0.90
2022-08-12T13:05:42.332Z,0.80
2022-08-12T13:08:28.208Z,0.90
2022-08-12T13:11:41.400Z,1.20
2022-08-12T13:14:55.967Z,0.90
2022-08-12T13:18:02.513Z,1.10
2022-08-12T13:21:00.898Z,0.80
2022-08-12T13:40:22.297Z,0.90
2022-08-12T13:43:01.542Z,1.00
2022-08-12T13:45:36.980Z,1.10
2022-08-12T13:48:09.953Z,1.00
2022-08-12T13:50:54.609Z,1.00
2022-08-12T13:53:57.665Z,0.90
2022-08-12T13:56:37.961Z,1.10
2022-08-12T14:02:22.601Z,0.90
2022-08-12T14:05:37.784Z,1.30
2022-08-12T14:08:05.696Z,1.50
2022-08-12T14:10:36.709Z,1.40
2022-08-12T14:14:02.532Z,1.50
2022-08-12T14:16:02.772Z,1.20
2022-08-12T14:18:49.211Z,1.20
2022-08-12T14:22:04.439Z,1.70
2022-08-12T14:24:53.660Z,1.40
2022-08-12T14:28:02.668Z,1.40
2022-08-12T14:31:05.894Z,1.20
2022-08-12T14:33:52.254Z,1.30
2022-08-12T14:37:13.096Z,1.40
2022-08-12T14:40:04.137Z,1.10
2022-08-12T14:42:33.219Z,1.30
2022-08-12T14:45:49.072Z,1.60
2022-08-12T14:48:29.416Z,1.20
2022-08-12T14:52:07.892Z,1.40
2022-08-12T14:57:19.029Z,1.40
2022-08-12T15:00:05.270Z,1.40
2022-08-12T15:02:37.681Z,1.30
2022-08-12T15:06:05.296Z,1.20
2022-08-12T15:08:38.827Z,1.50
2022-08-12T15:14:47.677Z,1.50
2022-08-12T15:17:38.195Z,1.40
2022-08-12T15:21:11.110Z,1.40
2022-08-12T15:23:45.462Z,1.40
2022-08-12T15:27:14.891Z,1.60
2022-08-12T15:30:24.408Z,1.60
2022-08-12T15:33:12.858Z,1.60
2022-08-12T15:35:54.949Z,1.40
2022-08-12T15:38:32.196Z,1.90
2022-08-12T15:44:51.365Z,1.70
2022-08-12T15:47:36.190Z,1.90
2022-08-12T15:54:49.988Z,2.70
2022-08-12T15:57:24.215Z,2.10
2022-08-12T16:00:06.567Z,2.00
2022-08-12T16:02:50.485Z,1.80
2022-08-12T16:06:12.623Z,2.00
2022-08-12T16:08:53.484Z,1.90
2022-08-12T16:11:22.855Z,2.00
2022-08-12T16:13:57.110Z,2.20
2022-08-12T16:16:35.041Z,1.90
2022-08-12T16:19:09.665Z,1.80
2022-08-12T16:21:59.009Z,2.10
2022-08-12T16:24:28.277Z,2.10
2022-08-12T16:26:58.539Z,2.10
2022-08-12T16:29:52.190Z,2.00
2022-08-12T16:32:22.647Z,2.10
2022-08-12T16:34:57.572Z,2.40
2022-08-12T16:38:04.767Z,2.10
2022-08-12T16:40:15.789Z,2.50
2022-08-12T16:42:53.582Z,2.00
2022-08-12T16:46:05.137Z,2.60
2022-08-12T16:48:35.030Z,2.70
2022-08-12T16:51:09.333Z,2.60
2022-08-12T16:53:44.024Z,2.50
2022-08-12T16:56:15.514Z,2.70
2022-08-12T16:58:44.661Z,2.30
2022-08-12T17:01:14.047Z,3.00
2022-08-12T17:03:52.041Z,2.50
2022-08-12T17:06:28.072Z,2.40
2022-08-12T17:09:02.065Z,2.90
2022-08-12T17:11:32.228Z,2.80
2022-08-12T17:14:03.293Z,2.60
2022-08-12T17:16:36.863Z,3.00
2022-08-12T17:19:09.734Z,2.50
2022-08-12T17:22:01.201Z,3.00
2022-08-12T17:24:32.102Z,5.00
2022-08-12T17:27:05.258Z,3.00
2022-08-12T17:30:02.510Z,2.80
2022-08-12T17:32:30.786Z,2.70
2022-08-12T17:35:18.442Z,2.50
2022-08-12T17:37:50.380Z,2.90
2022-08-12T17:40:35.940Z,4.30
2022-08-12T17:43:56.008Z,16.20
2022-08-12T17:45:59.835Z,7.70
2022-08-12T17:48:34.662Z,2.80
2022-08-12T17:51:12.327Z,3.40
2022-08-12T17:54:11.499Z,3.30
2022-08-12T17:56:36.880Z,3.20
2022-08-12T17:59:08.440Z,3.30
2022-08-12T18:01:43.819Z,2.80
2022-08-12T18:04:21.451Z,3.20
2022-08-12T18:06:53.877Z,3.40
2022-08-12T18:09:32.127Z,3.00
2022-08-12T18:12:35.393Z,3.30
2022-08-12T18:15:10.453Z,2.90
2022-08-12T18:18:02.884Z,2.90
2022-08-12T18:20:36.595Z,3.20
2022-08-12T18:23:09.756Z,3.00
2022-08-12T18:26:14.702Z,3.10
2022-08-12T18:28:56.207Z,3.00
2022-08-12T18:31:29.038Z,3.50
2022-08-12T18:34:18.184Z,3.20
2022-08-12T18:36:51.944Z,3.30
2022-08-12T18:39:24.278Z,3.00
2022-08-12T18:42:01.451Z,3.50
2022-08-12T18:44:45.367Z,3.10
2022-08-12T18:47:14.912Z,3.20
2022-08-12T18:50:04.045Z,3.30
2022-08-12T18:52:48.758Z,3.30
2022-08-12T18:55:20.327Z,3.40
2022-08-12T18:58:08.382Z,3.10
2022-08-12T19:00:43.293Z,3.30
2022-08-12T19:03:38.879Z,4.10
2022-08-12T19:06:08.810Z,3.40
2022-08-12T19:08:47.119Z,3.30
2022-08-12T19:11:35.165Z,3.50
2022-08-12T19:14:27.582Z,3.10
2022-08-12T19:16:58.544Z,3.40
2022-08-12T19:19:27.560Z,3.60
2022-08-12T19:22:28.949Z,3.40
2022-08-12T19:25:17.646Z,3.70
2022-08-12T19:27:51.758Z,3.20
2022-08-12T19:30:43.690Z,3.30
2022-08-12T19:33:20.905Z,3.40
2022-08-12T19:36:24.572Z,3.60
2022-08-12T19:38:56.498Z,3.90
2022-08-12T19:41:55.890Z,4.00
2022-08-12T19:44:27.489Z,3.50
2022-08-12T19:47:00.195Z,4.10
2022-08-12T19:49:45.420Z,4.00
2022-08-12T19:52:21.058Z,3.70
2022-08-12T19:55:19.465Z,3.60
2022-08-12T19:58:02.376Z,4.80
2022-08-12T20:00:52.795Z,4.60
2022-08-12T20:03:38.173Z,3.90
2022-08-12T20:06:13.876Z,3.80
2022-08-12T20:08:49.193Z,4.60
2022-08-12T20:12:12.969Z,4.60
2022-08-12T20:14:31.741Z,4.30
2022-08-12T20:17:23.620Z,3.90
2022-08-12T20:20:19.014Z,4.10
2022-08-12T20:23:09.136Z,3.90
2022-08-12T20:26:07.386Z,3.90
2022-08-12T20:28:54.265Z,3.60
2022-08-12T20:31:37.372Z,3.40
2022-08-12T20:34:06.796Z,3.20
2022-08-12T20:36:42.909Z,3.00
2022-08-12T20:39:52.253Z,3.10
2022-08-12T20:42:23.917Z,3.10
2022-08-12T20:45:08.471Z,3.20
2022-08-12T20:48:02.064Z,3.80
2022-08-12T20:50:40.005Z,3.40
2022-08-12T20:53:54.121Z,3.30
2022-08-12T20:56:33.772Z,3.70
2022-08-12T20:59:05.542Z,4.20
2022-08-12T21:01:47.542Z,4.30
2022-08-12T21:04:36.591Z,4.50
2022-08-12T21:07:29.168Z,4.50
2022-08-12T21:10:05.834Z,6.60
2022-08-12T21:12:39.911Z,5.40
2022-08-12T21:15:24.175Z,4.20
2022-08-12T21:18:11.378Z,3.50
2022-08-12T21:23:42.230Z,3.10
2022-08-12T21:26:20.138Z,3.00
2022-08-12T21:28:58.547Z,3.40
2022-08-12T21:32:40.855Z,2.80
2022-08-12T21:34:29.251Z,2.70
2022-08-12T21:37:13.239Z,2.60
2022-08-12T21:40:16.300Z,2.50
2022-08-12T21:43:07.659Z,2.40
2022-08-12T21:46:01.146Z,3.10
2022-08-12T21:48:30.859Z,2.90
2022-08-12T21:51:23.001Z,3.00
2022-08-12T21:54:09.973Z,3.30
2022-08-12T21:56:44.253Z,3.50
2022-08-12T21:59:18.997Z,4.00
2022-08-12T22:01:50.849Z,3.60
2022-08-12T22:04:57.997Z,3.50
2022-08-12T22:08:06.389Z,3.50
2022-08-12T22:10:37.573Z,3.70
2022-08-12T22:14:02.580Z,3.60
2022-08-12T22:16:46.841Z,3.50
2022-08-12T22:19:35.220Z,3.50
2022-08-12T22:22:33.868Z,3.10
2022-08-12T22:25:03.414Z,3.10
2022-08-12T22:27:55.854Z,3.20
2022-08-12T22:31:15.161Z,3.40
2022-08-12T22:33:59.699Z,3.20
2022-08-12T22:36:37.586Z,3.00
2022-08-12T22:39:27.049Z,4.30
2022-08-12T22:42:26.600Z,4.60
2022-08-12T22:45:48.370Z,4.00
2022-08-12T22:48:34.007Z,4.50
2022-08-12T22:51:27.871Z,4.40
2022-08-12T22:54:36.157Z,4.50
2022-08-12T22:57:15.389Z,4.20
2022-08-12T22:59:55.317Z,4.20
2022-08-12T23:02:30.299Z,4.20
2022-08-12T23:05:06.010Z,3.70
2022-08-12T23:08:06.235Z,4.50
2022-08-12T23:11:33.842Z,4.70
2022-08-12T23:14:24.871Z,4.80
2022-08-12T23:17:21.367Z,5.10
2022-08-12T23:20:13.061Z,4.50
2022-08-12T23:23:09.083Z,4.90
2022-08-12T23:26:09.881Z,4.90
2022-08-12T23:29:12.713Z,4.70
2022-08-12T23:35:45.816Z,4.90
2022-08-12T23:40:13.828Z,5.20
2022-08-12T23:43:07.499Z,5.30
2022-08-12T23:46:05.101Z,5.40
2022-08-12T23:49:55.379Z,5.20
2022-08-12T23:52:46.878Z,5.10
2022-08-12T23:55:29.081Z,5.50
2022-08-12T23:58:25.982Z,5.30
